sensor_id;sensor_type;location;lat;lon;timestamp;P1;durP1;ratioP1;P2;durP2;ratioP2
21014;SDS011;19207;-23.482;-46.500;2023-07-09T00:00:35;26.02;;;10.98;;
21014;SDS011;19207;-23.482;-46.500;2023-07-09T00:03:22;25.60;;;11.77;;
21014;SDS011;19207;-23.482;-46.500;2023-07-09T00:06:14;24.80;;;11.57;;
21014;SDS011;19207;-23.482;-46.500;2023-07-09T00:09:01;27.35;;;12.05;;
21014;SDS011;19207;-23.482;-46.500;2023-07-09T00:11:50;25.12;;;12.48;;
21014;SDS011;19207;-23.482;-46.500;2023-07-09T00:14:39;24.85;;;11.93;;
21014;SDS011;19207;-23.482;-46.500;2023-07-09T00:17:28;19.85;;;9.48;;
21014;SDS011;19207;-23.482;-46.500;2023-07-09T00:20:17;27.40;;;10.63;;
21014;SDS011;19207;-23.482;-46.500;2023-07-09T00:23:04;29.15;;;11.68;;
21014;SDS011;19207;-23.482;-46.500;2023-07-09T00:25:52;38.00;;;13.18;;
21014;SDS011;19207;-23.482;-46.500;2023-07-09T00:28:38;29.52;;;13.00;;
21014;SDS011;19207;-23.482;-46.500;2023-07-09T00:31:26;25.25;;;11.50;;
21014;SDS011;19207;-23.482;-46.500;2023-07-09T00:34:14;35.47;;;16.45;;
21014;SDS011;19207;-23.482;-46.500;2023-07-09T00:37:10;33.92;;;14.15;;
21014;SDS011;19207;-23.482;-46.500;2023-07-09T00:39:58;33.38;;;15.10;;
21014;SDS011;19207;-23.482;-46.500;2023-07-09T00:42:45;28.75;;;14.00;;
21014;SDS011;19207;-23.482;-46.500;2023-07-09T00:45:32;32.88;;;13.07;;
21014;SDS011;19207;-23.482;-46.500;2023-07-09T00:48:19;28.15;;;12.88;;
21014;SDS011;19207;-23.482;-46.500;2023-07-09T00:51:14;31.75;;;12.70;;
21014;SDS011;19207;-23.482;-46.500;2023-07-09T00:54:03;33.85;;;12.45;;
21014;SDS011;19207;-23.482;-46.500;2023-07-09T00:56:53;32.60;;;13.40;;
21014;SDS011;19207;-23.482;-46.500;2023-07-09T00:59:42;33.40;;;13.57;;
21014;SDS011;19207;-23.482;-46.500;2023-07-09T01:02:30;29.55;;;12.73;;
21014;SDS011;19207;-23.482;-46.500;2023-07-09T01:05:19;27.75;;;13.32;;
21014;SDS011;19207;-23.482;-46.500;2023-07-09T01:08:08;41.55;;;13.27;;
21014;SDS011;19207;-23.482;-46.500;2023-07-09T01:10:57;30.65;;;13.73;;
21014;SDS011;19207;-23.482;-46.500;2023-07-09T01:13:44;36.88;;;13.65;;
21014;SDS011;19207;-23.482;-46.500;2023-07-09T01:16:48;28.30;;;13.05;;
21014;SDS011;19207;-23.482;-46.500;2023-07-09T01:19:49;24.42;;;10.57;;
21014;SDS011;19207;-23.482;-46.500;2023-07-09T01:22:36;21.45;;;10.52;;
21014;SDS011;19207;-23.482;-46.500;2023-07-09T01:25:24;21.70;;;10.85;;
21014;SDS011;19207;-23.482;-46.500;2023-07-09T01:28:11;20.58;;;9.60;;
21014;SDS011;19207;-23.482;-46.500;2023-07-09T01:30:58;22.02;;;10.20;;
21014;SDS011;19207;-23.482;-46.500;2023-07-09T01:33:45;20.73;;;9.57;;
21014;SDS011;19207;-23.482;-46.500;2023-07-09T01:36:32;33.67;;;13.95;;
21014;SDS011;19207;-23.482;-46.500;2023-07-09T01:39:21;39.85;;;15.95;;
21014;SDS011;19207;-23.482;-46.500;2023-07-09T01:42:08;34.22;;;16.90;;
21014;SDS011;19207;-23.482;-46.500;2023-07-09T01:44:55;42.35;;;15.60;;
21014;SDS011;19207;-23.482;-46.500;2023-07-09T01:47:43;34.00;;;13.80;;
21014;SDS011;19207;-23.482;-46.500;2023-07-09T01:50:30;37.85;;;13.85;;
21014;SDS011;19207;-23.482;-46.500;2023-07-09T01:53:18;39.35;;;15.10;;
21014;SDS011;19207;-23.482;-46.500;2023-07-09T01:56:08;38.15;;;14.48;;
21014;SDS011;19207;-23.482;-46.500;2023-07-09T01:58:55;37.38;;;15.23;;
21014;SDS011;19207;-23.482;-46.500;2023-07-09T02:01:46;23.85;;;12.90;;
21014;SDS011;19207;-23.482;-46.500;2023-07-09T02:04:34;24.73;;;12.20;;
21014;SDS011;19207;-23.482;-46.500;2023-07-09T02:07:21;25.70;;;12.95;;
21014;SDS011;19207;-23.482;-46.500;2023-07-09T02:10:09;26.95;;;12.57;;
21014;SDS011;19207;-23.482;-46.500;2023-07-09T02:12:56;27.20;;;12.60;;
21014;SDS011;19207;-23.482;-46.500;2023-07-09T02:15:43;23.85;;;12.05;;
21014;SDS011;19207;-23.482;-46.500;2023-07-09T02:18:30;22.33;;;12.15;;
21014;SDS011;19207;-23.482;-46.500;2023-07-09T02:21:19;23.30;;;12.55;;
21014;SDS011;19207;-23.482;-46.500;2023-07-09T02:24:06;30.73;;;13.88;;
21014;SDS011;19207;-23.482;-46.500;2023-07-09T02:27:00;30.45;;;14.48;;
21014;SDS011;19207;-23.482;-46.500;2023-07-09T02:29:47;33.70;;;14.82;;
21014;SDS011;19207;-23.482;-46.500;2023-07-09T02:32:34;26.35;;;14.57;;
21014;SDS011;19207;-23.482;-46.500;2023-07-09T02:35:22;33.88;;;15.15;;
21014;SDS011;19207;-23.482;-46.500;2023-07-09T02:38:09;32.97;;;15.75;;
21014;SDS011;19207;-23.482;-46.500;2023-07-09T02:40:56;38.25;;;16.30;;
21014;SDS011;19207;-23.482;-46.500;2023-07-09T02:43:43;36.33;;;16.40;;
21014;SDS011;19207;-23.482;-46.500;2023-07-09T02:46:30;32.38;;;15.38;;
21014;SDS011;19207;-23.482;-46.500;2023-07-09T02:49:17;30.35;;;15.02;;
21014;SDS011;19207;-23.482;-46.500;2023-07-09T02:52:04;28.87;;;14.75;;
21014;SDS011;19207;-23.482;-46.500;2023-07-09T02:54:51;32.22;;;15.27;;
21014;SDS011;19207;-23.482;-46.500;2023-07-09T02:57:38;36.72;;;15.38;;
21014;SDS011;19207;-23.482;-46.500;2023-07-09T03:00:25;29.40;;;15.10;;
21014;SDS011;19207;-23.482;-46.500;2023-07-09T03:03:11;31.60;;;15.68;;
21014;SDS011;19207;-23.482;-46.500;2023-07-09T03:05:58;33.58;;;15.70;;
21014;SDS011;19207;-23.482;-46.500;2023-07-09T03:08:46;33.95;;;15.57;;
21014;SDS011;19207;-23.482;-46.500;2023-07-09T03:11:33;30.98;;;15.48;;
21014;SDS011;19207;-23.482;-46.500;2023-07-09T03:14:20;33.58;;;16.85;;
21014;SDS011;19207;-23.482;-46.500;2023-07-09T03:17:07;35.65;;;16.27;;
21014;SDS011;19207;-23.482;-46.500;2023-07-09T03:19:54;27.95;;;16.05;;
21014;SDS011;19207;-23.482;-46.500;2023-07-09T03:22:42;33.20;;;16.30;;
21014;SDS011;19207;-23.482;-46.500;2023-07-09T03:25:29;34.72;;;16.73;;
21014;SDS011;19207;-23.482;-46.500;2023-07-09T03:28:16;36.35;;;17.87;;
21014;SDS011;19207;-23.482;-46.500;2023-07-09T03:31:03;40.20;;;18.27;;
21014;SDS011;19207;-23.482;-46.500;2023-07-09T03:33:50;32.33;;;18.40;;
21014;SDS011;19207;-23.482;-46.500;2023-07-09T03:36:38;38.17;;;18.65;;
21014;SDS011;19207;-23.482;-46.500;2023-07-09T03:39:24;40.88;;;18.73;;
21014;SDS011;19207;-23.482;-46.500;2023-07-09T03:42:12;44.25;;;20.37;;
21014;SDS011;19207;-23.482;-46.500;2023-07-09T03:44:59;38.00;;;19.48;;
21014;SDS011;19207;-23.482;-46.500;2023-07-09T03:47:46;40.08;;;20.85;;
21014;SDS011;19207;-23.482;-46.500;2023-07-09T03:50:33;46.05;;;21.90;;
21014;SDS011;19207;-23.482;-46.500;2023-07-09T03:53:19;40.22;;;21.70;;
21014;SDS011;19207;-23.482;-46.500;2023-07-09T03:56:06;44.30;;;22.35;;
21014;SDS011;19207;-23.482;-46.500;2023-07-09T03:58:54;45.25;;;22.77;;
21014;SDS011;19207;-23.482;-46.500;2023-07-09T04:01:59;43.28;;;23.45;;
21014;SDS011;19207;-23.482;-46.500;2023-07-09T04:04:47;47.83;;;25.62;;
21014;SDS011;19207;-23.482;-46.500;2023-07-09T04:07:34;59.10;;;27.87;;
21014;SDS011;19207;-23.482;-46.500;2023-07-09T04:10:21;48.20;;;26.17;;
21014;SDS011;19207;-23.482;-46.500;2023-07-09T04:13:08;54.00;;;26.98;;
21014;SDS011;19207;-23.482;-46.500;2023-07-09T04:15:55;62.33;;;27.37;;
21014;SDS011;19207;-23.482;-46.500;2023-07-09T04:18:43;48.58;;;27.13;;
21014;SDS011;19207;-23.482;-46.500;2023-07-09T04:21:48;62.10;;;29.05;;
21014;SDS011;19207;-23.482;-46.500;2023-07-09T04:24:36;57.28;;;27.45;;
21014;SDS011;19207;-23.482;-46.500;2023-07-09T04:27:23;44.00;;;26.10;;
21014;SDS011;19207;-23.482;-46.500;2023-07-09T04:30:14;56.92;;;27.92;;
21014;SDS011;19207;-23.482;-46.500;2023-07-09T04:33:01;50.85;;;27.83;;
21014;SDS011;19207;-23.482;-46.500;2023-07-09T04:35:49;51.70;;;27.95;;
21014;SDS011;19207;-23.482;-46.500;2023-07-09T04:38:36;58.60;;;26.67;;
21014;SDS011;19207;-23.482;-46.500;2023-07-09T04:41:23;51.08;;;26.58;;
21014;SDS011;19207;-23.482;-46.500;2023-07-09T04:44:10;47.75;;;26.83;;
21014;SDS011;19207;-23.482;-46.500;2023-07-09T04:46:57;51.50;;;25.67;;
21014;SDS011;19207;-23.482;-46.500;2023-07-09T04:49:44;52.47;;;27.48;;
21014;SDS011;19207;-23.482;-46.500;2023-07-09T04:52:31;51.50;;;25.70;;
21014;SDS011;19207;-23.482;-46.500;2023-07-09T04:55:18;52.70;;;27.30;;
21014;SDS011;19207;-23.482;-46.500;2023-07-09T04:58:05;57.15;;;27.35;;
21014;SDS011;19207;-23.482;-46.500;2023-07-09T05:00:52;47.08;;;27.27;;
21014;SDS011;19207;-23.482;-46.500;2023-07-09T05:03:39;52.53;;;27.50;;
21014;SDS011;19207;-23.482;-46.500;2023-07-09T05:06:26;51.47;;;28.23;;
21014;SDS011;19207;-23.482;-46.500;2023-07-09T05:09:13;52.90;;;28.25;;
21014;SDS011;19207;-23.482;-46.500;2023-07-09T05:12:00;53.85;;;28.20;;
21014;SDS011;19207;-23.482;-46.500;2023-07-09T05:14:48;49.42;;;24.08;;
21014;SDS011;19207;-23.482;-46.500;2023-07-09T05:17:38;44.72;;;25.88;;
21014;SDS011;19207;-23.482;-46.500;2023-07-09T05:20:24;49.17;;;23.42;;
21014;SDS011;19207;-23.482;-46.500;2023-07-09T05:23:11;50.42;;;23.65;;
21014;SDS011;19207;-23.482;-46.500;2023-07-09T05:26:00;50.65;;;22.92;;
21014;SDS011;19207;-23.482;-46.500;2023-07-09T05:28:47;39.08;;;20.42;;
21014;SDS011;19207;-23.482;-46.500;2023-07-09T05:31:35;32.55;;;18.23;;
21014;SDS011;19207;-23.482;-46.500;2023-07-09T05:34:22;36.30;;;15.93;;
21014;SDS011;19207;-23.482;-46.500;2023-07-09T05:37:09;32.40;;;17.17;;
21014;SDS011;19207;-23.482;-46.500;2023-07-09T05:39:56;31.23;;;16.85;;
21014;SDS011;19207;-23.482;-46.500;2023-07-09T05:42:43;34.75;;;16.37;;
21014;SDS011;19207;-23.482;-46.500;2023-07-09T05:45:39;36.90;;;17.58;;
21014;SDS011;19207;-23.482;-46.500;2023-07-09T05:48:26;32.65;;;19.02;;
21014;SDS011;19207;-23.482;-46.500;2023-07-09T05:51:13;27.20;;;17.58;;
21014;SDS011;19207;-23.482;-46.500;2023-07-09T05:54:00;33.00;;;18.58;;
21014;SDS011;19207;-23.482;-46.500;2023-07-09T05:56:47;37.25;;;18.67;;
21014;SDS011;19207;-23.482;-46.500;2023-07-09T05:59:34;37.63;;;18.70;;
21014;SDS011;19207;-23.482;-46.500;2023-07-09T06:02:21;35.75;;;18.15;;
21014;SDS011;19207;-23.482;-46.500;2023-07-09T06:05:08;47.20;;;19.62;;
21014;SDS011;19207;-23.482;-46.500;2023-07-09T06:07:56;33.85;;;18.35;;
21014;SDS011;19207;-23.482;-46.500;2023-07-09T06:13:39;40.22;;;20.30;;
21014;SDS011;19207;-23.482;-46.500;2023-07-09T06:16:44;36.22;;;19.95;;
21014;SDS011;19207;-23.482;-46.500;2023-07-09T06:19:31;43.35;;;20.65;;
21014;SDS011;19207;-23.482;-46.500;2023-07-09T06:22:18;41.88;;;22.65;;
21014;SDS011;19207;-23.482;-46.500;2023-07-09T06:25:05;37.95;;;21.15;;
21014;SDS011;19207;-23.482;-46.500;2023-07-09T06:27:52;44.70;;;22.45;;
21014;SDS011;19207;-23.482;-46.500;2023-07-09T06:30:39;41.72;;;22.83;;
21014;SDS011;19207;-23.482;-46.500;2023-07-09T06:33:27;48.20;;;23.92;;
21014;SDS011;19207;-23.482;-46.500;2023-07-09T06:36:14;42.95;;;22.98;;
21014;SDS011;19207;-23.482;-46.500;2023-07-09T06:39:02;46.80;;;26.08;;
21014;SDS011;19207;-23.482;-46.500;2023-07-09T06:41:49;41.30;;;23.83;;
21014;SDS011;19207;-23.482;-46.500;2023-07-09T06:44:43;52.58;;;26.27;;
21014;SDS011;19207;-23.482;-46.500;2023-07-09T06:47:30;53.97;;;27.13;;
21014;SDS011;19207;-23.482;-46.500;2023-07-09T06:50:17;53.13;;;26.92;;
21014;SDS011;19207;-23.482;-46.500;2023-07-09T06:53:04;44.72;;;25.98;;
21014;SDS011;19207;-23.482;-46.500;2023-07-09T06:55:51;50.20;;;26.37;;
21014;SDS011;19207;-23.482;-46.500;2023-07-09T06:58:43;51.30;;;26.08;;
21014;SDS011;19207;-23.482;-46.500;2023-07-09T07:01:31;48.00;;;25.30;;
21014;SDS011;19207;-23.482;-46.500;2023-07-09T07:04:18;49.35;;;27.20;;
21014;SDS011;19207;-23.482;-46.500;2023-07-09T07:07:05;47.70;;;26.58;;
21014;SDS011;19207;-23.482;-46.500;2023-07-09T07:09:52;45.75;;;25.33;;
21014;SDS011;19207;-23.482;-46.500;2023-07-09T07:12:44;47.97;;;26.55;;
21014;SDS011;19207;-23.482;-46.500;2023-07-09T07:15:31;45.45;;;24.73;;
21014;SDS011;19207;-23.482;-46.500;2023-07-09T07:18:18;47.80;;;24.73;;
21014;SDS011;19207;-23.482;-46.500;2023-07-09T07:21:05;60.38;;;24.77;;
21014;SDS011;19207;-23.482;-46.500;2023-07-09T07:23:52;53.33;;;25.30;;
21014;SDS011;19207;-23.482;-46.500;2023-07-09T07:26:39;43.50;;;24.05;;
21014;SDS011;19207;-23.482;-46.500;2023-07-09T07:29:26;53.13;;;25.58;;
21014;SDS011;19207;-23.482;-46.500;2023-07-09T07:32:13;42.75;;;22.60;;
21014;SDS011;19207;-23.482;-46.500;2023-07-09T07:35:01;47.67;;;25.70;;
21014;SDS011;19207;-23.482;-46.500;2023-07-09T07:37:48;48.67;;;27.37;;
21014;SDS011;19207;-23.482;-46.500;2023-07-09T07:40:35;50.40;;;27.08;;
21014;SDS011;19207;-23.482;-46.500;2023-07-09T07:43:22;58.33;;;27.75;;
21014;SDS011;19207;-23.482;-46.500;2023-07-09T07:46:09;53.72;;;28.92;;
21014;SDS011;19207;-23.482;-46.500;2023-07-09T07:48:56;54.22;;;27.20;;
21014;SDS011;19207;-23.482;-46.500;2023-07-09T07:51:43;48.85;;;27.52;;
21014;SDS011;19207;-23.482;-46.500;2023-07-09T07:54:31;61.65;;;28.73;;
21014;SDS011;19207;-23.482;-46.500;2023-07-09T07:57:18;62.05;;;29.02;;
21014;SDS011;19207;-23.482;-46.500;2023-07-09T08:00:05;53.60;;;29.48;;
21014;SDS011;19207;-23.482;-46.500;2023-07-09T08:02:57;52.92;;;29.67;;
21014;SDS011;19207;-23.482;-46.500;2023-07-09T08:05:48;57.55;;;28.70;;
21014;SDS011;19207;-23.482;-46.500;2023-07-09T08:08:35;71.25;;;34.88;;
21014;SDS011;19207;-23.482;-46.500;2023-07-09T08:11:22;73.85;;;33.42;;
21014;SDS011;19207;-23.482;-46.500;2023-07-09T08:14:09;66.85;;;32.60;;
21014;SDS011;19207;-23.482;-46.500;2023-07-09T08:16:56;57.55;;;30.17;;
21014;SDS011;19207;-23.482;-46.500;2023-07-09T08:19:44;66.68;;;31.50;;
21014;SDS011;19207;-23.482;-46.500;2023-07-09T08:22:31;57.45;;;30.80;;
21014;SDS011;19207;-23.482;-46.500;2023-07-09T08:25:19;54.55;;;27.85;;
21014;SDS011;19207;-23.482;-46.500;2023-07-09T08:28:06;58.33;;;28.65;;
21014;SDS011;19207;-23.482;-46.500;2023-07-09T08:30:56;52.62;;;28.83;;
21014;SDS011;19207;-23.482;-46.500;2023-07-09T08:33:43;51.10;;;26.23;;
21014;SDS011;19207;-23.482;-46.500;2023-07-09T08:36:30;48.22;;;25.85;;
21014;SDS011;19207;-23.482;-46.500;2023-07-09T08:39:17;45.75;;;26.92;;
21014;SDS011;19207;-23.482;-46.500;2023-07-09T08:42:06;59.53;;;27.17;;
21014;SDS011;19207;-23.482;-46.500;2023-07-09T08:45:00;48.13;;;26.77;;
21014;SDS011;19207;-23.482;-46.500;2023-07-09T08:47:52;64.97;;;28.10;;
21014;SDS011;19207;-23.482;-46.500;2023-07-09T08:50:55;45.75;;;24.10;;
21014;SDS011;19207;-23.482;-46.500;2023-07-09T08:53:48;48.78;;;25.33;;
21014;SDS011;19207;-23.482;-46.500;2023-07-09T08:56:36;46.65;;;24.75;;
21014;SDS011;19207;-23.482;-46.500;2023-07-09T08:59:23;48.47;;;26.67;;
21014;SDS011;19207;-23.482;-46.500;2023-07-09T09:02:21;57.42;;;30.20;;
21014;SDS011;19207;-23.482;-46.500;2023-07-09T09:05:14;59.97;;;29.70;;
21014;SDS011;19207;-23.482;-46.500;2023-07-09T09:08:25;60.78;;;29.42;;
21014;SDS011;19207;-23.482;-46.500;2023-07-09T09:14:17;56.15;;;29.92;;
21014;SDS011;19207;-23.482;-46.500;2023-07-09T09:17:09;54.75;;;30.58;;
21014;SDS011;19207;-23.482;-46.500;2023-07-09T09:20:04;58.05;;;29.83;;
21014;SDS011;19207;-23.482;-46.500;2023-07-09T09:25:55;58.22;;;29.92;;
21014;SDS011;19207;-23.482;-46.500;2023-07-09T09:28:55;68.30;;;30.90;;
21014;SDS011;19207;-23.482;-46.500;2023-07-09T09:31:44;58.13;;;29.52;;
21014;SDS011;19207;-23.482;-46.500;2023-07-09T09:34:31;56.05;;;27.52;;
21014;SDS011;19207;-23.482;-46.500;2023-07-09T09:37:29;53.53;;;26.60;;
21014;SDS011;19207;-23.482;-46.500;2023-07-09T09:40:17;44.20;;;23.77;;
21014;SDS011;19207;-23.482;-46.500;2023-07-09T09:43:11;49.25;;;24.37;;
21014;SDS011;19207;-23.482;-46.500;2023-07-09T09:45:59;47.22;;;24.98;;
21014;SDS011;19207;-23.482;-46.500;2023-07-09T09:48:48;47.53;;;24.50;;
21014;SDS011;19207;-23.482;-46.500;2023-07-09T09:51:35;47.78;;;25.33;;
21014;SDS011;19207;-23.482;-46.500;2023-07-09T09:54:27;52.67;;;25.83;;
21014;SDS011;19207;-23.482;-46.500;2023-07-09T09:57:21;50.95;;;27.50;;
21014;SDS011;19207;-23.482;-46.500;2023-07-09T10:00:12;54.60;;;27.62;;
21014;SDS011;19207;-23.482;-46.500;2023-07-09T10:03:02;57.40;;;28.92;;
21014;SDS011;19207;-23.482;-46.500;2023-07-09T10:05:53;76.28;;;33.78;;
21014;SDS011;19207;-23.482;-46.500;2023-07-09T10:08:56;72.82;;;32.00;;
21014;SDS011;19207;-23.482;-46.500;2023-07-09T10:26:09;51.63;;;27.85;;
21014;SDS011;19207;-23.482;-46.500;2023-07-09T10:32:29;55.97;;;26.02;;
21014;SDS011;19207;-23.482;-46.500;2023-07-09T10:35:27;59.10;;;28.00;;
21014;SDS011;19207;-23.482;-46.500;2023-07-09T10:41:07;64.43;;;29.08;;
21014;SDS011;19207;-23.482;-46.500;2023-07-09T10:46:56;58.08;;;25.67;;
21014;SDS011;19207;-23.482;-46.500;2023-07-09T10:49:44;56.92;;;25.08;;
21014;SDS011;19207;-23.482;-46.500;2023-07-09T10:52:36;53.42;;;24.90;;
21014;SDS011;19207;-23.482;-46.500;2023-07-09T10:55:28;56.28;;;25.65;;
21014;SDS011;19207;-23.482;-46.500;2023-07-09T10:58:39;54.90;;;26.30;;
21014;SDS011;19207;-23.482;-46.500;2023-07-09T11:01:31;56.22;;;27.42;;
21014;SDS011;19207;-23.482;-46.500;2023-07-09T11:07:41;57.47;;;26.48;;
21014;SDS011;19207;-23.482;-46.500;2023-07-09T11:10:34;61.05;;;28.48;;
21014;SDS011;19207;-23.482;-46.500;2023-07-09T11:13:28;63.65;;;29.85;;
21014;SDS011;19207;-23.482;-46.500;2023-07-09T11:16:51;70.20;;;33.17;;
21014;SDS011;19207;-23.482;-46.500;2023-07-09T11:19:31;73.65;;;33.65;;
21014;SDS011;19207;-23.482;-46.500;2023-07-09T11:22:23;68.00;;;30.58;;
21014;SDS011;19207;-23.482;-46.500;2023-07-09T11:25:14;58.78;;;30.00;;
21014;SDS011;19207;-23.482;-46.500;2023-07-09T11:28:05;57.17;;;29.35;;
21014;SDS011;19207;-23.482;-46.500;2023-07-09T11:30:53;62.53;;;28.77;;
21014;SDS011;19207;-23.482;-46.500;2023-07-09T11:33:46;59.55;;;27.92;;
21014;SDS011;19207;-23.482;-46.500;2023-07-09T11:36:33;45.38;;;24.10;;
21014;SDS011;19207;-23.482;-46.500;2023-07-09T11:39:20;46.70;;;24.77;;
21014;SDS011;19207;-23.482;-46.500;2023-07-09T11:45:26;45.60;;;22.65;;
21014;SDS011;19207;-23.482;-46.500;2023-07-09T11:48:27;39.28;;;21.00;;
21014;SDS011;19207;-23.482;-46.500;2023-07-09T11:51:16;36.28;;;20.73;;
21014;SDS011;19207;-23.482;-46.500;2023-07-09T11:54:03;34.05;;;18.12;;
21014;SDS011;19207;-23.482;-46.500;2023-07-09T11:56:57;33.92;;;17.95;;
21014;SDS011;19207;-23.482;-46.500;2023-07-09T11:59:44;38.40;;;18.80;;
21014;SDS011;19207;-23.482;-46.500;2023-07-09T12:02:32;35.92;;;18.23;;
21014;SDS011;19207;-23.482;-46.500;2023-07-09T12:05:28;39.92;;;19.12;;
21014;SDS011;19207;-23.482;-46.500;2023-07-09T12:08:15;36.00;;;18.73;;
21014;SDS011;19207;-23.482;-46.500;2023-07-09T12:11:03;39.35;;;22.65;;
21014;SDS011;19207;-23.482;-46.500;2023-07-09T12:13:50;45.70;;;23.50;;
21014;SDS011;19207;-23.482;-46.500;2023-07-09T12:16:41;46.85;;;24.58;;
21014;SDS011;19207;-23.482;-46.500;2023-07-09T12:19:30;45.20;;;26.08;;
21014;SDS011;19207;-23.482;-46.500;2023-07-09T12:22:19;41.50;;;22.98;;
21014;SDS011;19207;-23.482;-46.500;2023-07-09T12:25:07;36.33;;;19.77;;
21014;SDS011;19207;-23.482;-46.500;2023-07-09T12:28:12;30.25;;;17.98;;
21014;SDS011;19207;-23.482;-46.500;2023-07-09T12:31:00;27.20;;;16.45;;
21014;SDS011;19207;-23.482;-46.500;2023-07-09T12:33:48;23.15;;;14.35;;
21014;SDS011;19207;-23.482;-46.500;2023-07-09T12:36:35;23.83;;;13.43;;
21014;SDS011;19207;-23.482;-46.500;2023-07-09T12:39:26;22.65;;;13.40;;
21014;SDS011;19207;-23.482;-46.500;2023-07-09T12:42:15;24.12;;;13.45;;
21014;SDS011;19207;-23.482;-46.500;2023-07-09T12:45:04;24.90;;;13.13;;
21014;SDS011;19207;-23.482;-46.500;2023-07-09T12:47:51;27.65;;;14.07;;
21014;SDS011;19207;-23.482;-46.500;2023-07-09T12:50:38;19.92;;;13.52;;
21014;SDS011;19207;-23.482;-46.500;2023-07-09T12:53:26;23.77;;;13.60;;
21014;SDS011;19207;-23.482;-46.500;2023-07-09T12:56:13;24.30;;;13.77;;
21014;SDS011;19207;-23.482;-46.500;2023-07-09T12:59:03;26.25;;;14.77;;
21014;SDS011;19207;-23.482;-46.500;2023-07-09T13:01:57;31.75;;;15.02;;
21014;SDS011;19207;-23.482;-46.500;2023-07-09T13:04:47;24.42;;;15.60;;
21014;SDS011;19207;-23.482;-46.500;2023-07-09T13:07:36;27.80;;;13.55;;
21014;SDS011;19207;-23.482;-46.500;2023-07-09T13:10:30;26.30;;;13.10;;
21014;SDS011;19207;-23.482;-46.500;2023-07-09T13:13:18;23.67;;;13.43;;
21014;SDS011;19207;-23.482;-46.500;2023-07-09T13:16:06;27.27;;;13.52;;
21014;SDS011;19207;-23.482;-46.500;2023-07-09T13:18:52;24.40;;;13.43;;
21014;SDS011;19207;-23.482;-46.500;2023-07-09T13:21:40;22.70;;;13.68;;
21014;SDS011;19207;-23.482;-46.500;2023-07-09T13:24:28;20.35;;;12.68;;
21014;SDS011;19207;-23.482;-46.500;2023-07-09T13:27:15;24.15;;;13.27;;
21014;SDS011;19207;-23.482;-46.500;2023-07-09T13:30:02;24.27;;;13.32;;
21014;SDS011;19207;-23.482;-46.500;2023-07-09T13:32:49;23.98;;;13.52;;
21014;SDS011;19207;-23.482;-46.500;2023-07-09T13:35:36;27.10;;;12.82;;
21014;SDS011;19207;-23.482;-46.500;2023-07-09T13:38:23;20.37;;;12.07;;
21014;SDS011;19207;-23.482;-46.500;2023-07-09T13:41:12;21.98;;;12.23;;
21014;SDS011;19207;-23.482;-46.500;2023-07-09T13:44:00;18.62;;;10.45;;
21014;SDS011;19207;-23.482;-46.500;2023-07-09T13:46:47;17.17;;;10.48;;
21014;SDS011;19207;-23.482;-46.500;2023-07-09T13:49:34;15.73;;;9.93;;
21014;SDS011;19207;-23.482;-46.500;2023-07-09T13:52:22;14.93;;;9.55;;
21014;SDS011;19207;-23.482;-46.500;2023-07-09T13:55:15;20.60;;;9.48;;
21014;SDS011;19207;-23.482;-46.500;2023-07-09T13:58:09;15.25;;;9.38;;
21014;SDS011;19207;-23.482;-46.500;2023-07-09T14:00:58;13.73;;;9.20;;
21014;SDS011;19207;-23.482;-46.500;2023-07-09T14:03:57;18.67;;;9.70;;
21014;SDS011;19207;-23.482;-46.500;2023-07-09T14:06:44;18.40;;;10.07;;
21014;SDS011;19207;-23.482;-46.500;2023-07-09T14:09:46;16.98;;;9.60;;
21014;SDS011;19207;-23.482;-46.500;2023-07-09T14:12:34;16.62;;;10.43;;
21014;SDS011;19207;-23.482;-46.500;2023-07-09T14:15:22;21.62;;;10.48;;
21014;SDS011;19207;-23.482;-46.500;2023-07-09T14:18:11;18.80;;;9.90;;
21014;SDS011;19207;-23.482;-46.500;2023-07-09T14:20:58;14.00;;;8.32;;
21014;SDS011;19207;-23.482;-46.500;2023-07-09T14:23:46;13.95;;;8.93;;
21014;SDS011;19207;-23.482;-46.500;2023-07-09T14:26:33;17.25;;;8.52;;
21014;SDS011;19207;-23.482;-46.500;2023-07-09T14:29:20;17.02;;;7.37;;
21014;SDS011;19207;-23.482;-46.500;2023-07-09T14:32:30;15.18;;;8.57;;
21014;SDS011;19207;-23.482;-46.500;2023-07-09T14:35:20;12.13;;;8.23;;
21014;SDS011;19207;-23.482;-46.500;2023-07-09T14:41:04;8.73;;;5.93;;
21014;SDS011;19207;-23.482;-46.500;2023-07-09T14:43:59;11.95;;;6.50;;
21014;SDS011;19207;-23.482;-46.500;2023-07-09T14:46:46;11.48;;;6.40;;
21014;SDS011;19207;-23.482;-46.500;2023-07-09T14:49:32;11.85;;;6.68;;
21014;SDS011;19207;-23.482;-46.500;2023-07-09T14:52:20;14.57;;;7.43;;
21014;SDS011;19207;-23.482;-46.500;2023-07-09T14:55:18;10.18;;;6.80;;
21014;SDS011;19207;-23.482;-46.500;2023-07-09T14:58:26;16.30;;;8.27;;
21014;SDS011;19207;-23.482;-46.500;2023-07-09T15:01:13;14.82;;;7.82;;
21014;SDS011;19207;-23.482;-46.500;2023-07-09T15:04:02;12.48;;;7.60;;
21014;SDS011;19207;-23.482;-46.500;2023-07-09T15:06:54;11.43;;;7.47;;
21014;SDS011;19207;-23.482;-46.500;2023-07-09T15:09:41;11.00;;;7.12;;
21014;SDS011;19207;-23.482;-46.500;2023-07-09T15:12:30;12.95;;;7.75;;
21014;SDS011;19207;-23.482;-46.500;2023-07-09T15:18:12;13.25;;;6.85;;
21014;SDS011;19207;-23.482;-46.500;2023-07-09T15:21:00;13.77;;;7.25;;
21014;SDS011;19207;-23.482;-46.500;2023-07-09T15:23:47;10.93;;;7.05;;
21014;SDS011;19207;-23.482;-46.500;2023-07-09T15:26:41;12.13;;;6.60;;
21014;SDS011;19207;-23.482;-46.500;2023-07-09T15:29:28;9.57;;;5.80;;
21014;SDS011;19207;-23.482;-46.500;2023-07-09T15:32:15;12.77;;;6.28;;
21014;SDS011;19207;-23.482;-46.500;2023-07-09T15:35:02;6.97;;;4.82;;
21014;SDS011;19207;-23.482;-46.500;2023-07-09T15:37:51;9.65;;;5.97;;
21014;SDS011;19207;-23.482;-46.500;2023-07-09T15:40:39;11.02;;;6.12;;
21014;SDS011;19207;-23.482;-46.500;2023-07-09T15:43:26;14.90;;;5.90;;
21014;SDS011;19207;-23.482;-46.500;2023-07-09T15:46:21;10.68;;;6.43;;
21014;SDS011;19207;-23.482;-46.500;2023-07-09T15:49:10;7.32;;;5.43;;
21014;SDS011;19207;-23.482;-46.500;2023-07-09T15:51:57;8.48;;;5.20;;
21014;SDS011;19207;-23.482;-46.500;2023-07-09T15:54:45;10.05;;;4.70;;
21014;SDS011;19207;-23.482;-46.500;2023-07-09T15:57:32;7.18;;;5.10;;
21014;SDS011;19207;-23.482;-46.500;2023-07-09T16:00:20;6.62;;;4.68;;
21014;SDS011;19207;-23.482;-46.500;2023-07-09T16:03:07;6.82;;;4.47;;
21014;SDS011;19207;-23.482;-46.500;2023-07-09T16:05:55;7.12;;;5.00;;
21014;SDS011;19207;-23.482;-46.500;2023-07-09T16:08:42;5.45;;;4.43;;
21014;SDS011;19207;-23.482;-46.500;2023-07-09T16:11:29;8.32;;;4.97;;
21014;SDS011;19207;-23.482;-46.500;2023-07-09T16:14:21;9.68;;;4.70;;
21014;SDS011;19207;-23.482;-46.500;2023-07-09T16:17:10;7.97;;;5.05;;
21014;SDS011;19207;-23.482;-46.500;2023-07-09T16:19:57;7.20;;;4.62;;
21014;SDS011;19207;-23.482;-46.500;2023-07-09T16:22:46;7.47;;;4.75;;
21014;SDS011;19207;-23.482;-46.500;2023-07-09T16:25:34;6.47;;;4.70;;
21014;SDS011;19207;-23.482;-46.500;2023-07-09T16:28:22;9.65;;;4.75;;
21014;SDS011;19207;-23.482;-46.500;2023-07-09T16:31:09;6.68;;;4.80;;
21014;SDS011;19207;-23.482;-46.500;2023-07-09T16:33:56;8.80;;;5.53;;